createdAt,value
2019-06-26T00:00:38.127Z,8.00
2019-06-26T00:05:42.176Z,7.60
2019-06-26T00:10:46.170Z,7.00
2019-06-26T00:15:50.102Z,8.25
2019-06-26T00:20:54.049Z,7.40
2019-06-26T00:25:58.067Z,7.25
2019-06-26T00:31:02.017Z,9.00
2019-06-26T00:36:05.947Z,8.50
2019-06-26T00:41:10.017Z,7.60
2019-06-26T00:46:13.995Z,7.50
2019-06-26T00:51:18.201Z,7.80
2019-06-26T00:56:22.208Z,8.00
2019-06-26T01:01:26.145Z,8.00
2019-06-26T01:06:45.176Z,7.00
2019-06-26T01:11:49.122Z,7.75
2019-06-26T01:16:53.050Z,6.50
2019-06-26T01:21:57.060Z,7.00
2019-06-26T01:27:01.005Z,6.40
2019-06-26T01:32:05.090Z,6.80
2019-06-26T01:37:09.016Z,6.00
2019-06-26T01:42:12.946Z,7.00
2019-06-26T01:47:16.947Z,6.80
2019-06-26T01:52:20.970Z,7.25
2019-06-26T01:57:24.902Z,7.00
2019-06-26T02:02:29.223Z,7.80
2019-06-26T02:07:33.169Z,5.75
2019-06-26T02:12:37.234Z,6.00
2019-06-26T02:17:41.177Z,7.25
2019-06-26T02:22:45.106Z,7.75
2019-06-26T02:27:49.032Z,6.80
2019-06-26T02:32:53.009Z,6.00
2019-06-26T02:37:56.897Z,6.80
2019-06-26T02:43:06.353Z,7.00
2019-06-26T02:48:06.735Z,6.80
2019-06-26T02:53:10.740Z,6.00
2019-06-26T02:58:14.690Z,13.40
2019-06-26T03:03:18.641Z,12.00
2019-06-26T03:08:22.646Z,15.60
2019-06-26T03:13:26.601Z,16.20
2019-06-26T03:18:30.529Z,15.60
2019-06-26T03:23:34.614Z,15.40
2019-06-26T03:28:38.553Z,16.25
2019-06-26T03:33:42.763Z,16.60
2019-06-26T03:38:46.791Z,16.00
2019-06-26T03:43:50.761Z,16.60
2019-06-26T03:48:54.701Z,16.20
2019-06-26T03:53:58.656Z,16.40
2019-06-26T03:59:02.615Z,17.75
2019-06-26T04:04:06.570Z,15.00
2019-06-26T04:09:11.201Z,16.40
2019-06-26T04:14:15.148Z,16.75
2019-06-26T04:19:19.116Z,14.00
2019-06-26T04:24:23.027Z,15.50
2019-06-26T04:29:26.957Z,17.00
2019-06-26T04:34:30.899Z,16.00
2019-06-26T04:39:34.851Z,15.60
2019-06-26T04:44:38.782Z,16.50
2019-06-26T04:49:42.727Z,15.50
2019-06-26T04:54:46.657Z,16.25
2019-06-26T04:59:50.656Z,18.50
2019-06-26T05:04:54.619Z,14.25
2019-06-26T05:09:58.683Z,14.40
2019-06-26T05:15:02.640Z,16.50
2019-06-26T05:20:08.318Z,16.83
2019-06-26T05:25:12.342Z,15.20
2019-06-26T05:30:16.940Z,15.20
2019-06-26T05:35:20.941Z,16.40
2019-06-26T05:40:25.054Z,16.00
2019-06-26T05:45:29.116Z,16.75
2019-06-26T05:50:33.055Z,16.75
2019-06-26T05:55:36.991Z,15.20
2019-06-26T06:00:40.955Z,16.80
2019-06-26T06:05:45.001Z,15.40
2019-06-26T06:10:49.015Z,16.25
2019-06-26T06:15:52.977Z,15.80
2019-06-26T06:20:56.955Z,18.00
2019-06-26T06:26:01.205Z,15.25
2019-06-26T06:31:05.216Z,15.00
2019-06-26T06:36:09.889Z,17.50
2019-06-26T06:41:14.060Z,15.00
2019-06-26T06:46:18.249Z,15.00
2019-06-26T06:51:22.252Z,17.60
2019-06-26T06:56:26.286Z,15.80
2019-06-26T07:01:30.261Z,17.00
2019-06-26T07:06:34.379Z,16.00
2019-06-26T07:11:38.548Z,18.40
2019-06-26T07:16:42.583Z,15.75
2019-06-26T07:21:46.544Z,15.25
2019-06-26T07:26:50.472Z,15.80
2019-06-26T07:31:54.443Z,14.80
2019-06-26T07:36:58.386Z,16.25
2019-06-26T07:42:02.481Z,14.20
2019-06-26T07:47:21.905Z,15.00
2019-06-26T07:52:12.166Z,14.50
2019-06-26T07:57:16.135Z,13.80
2019-06-26T08:02:20.105Z,13.50
2019-06-26T08:07:24.316Z,12.75
2019-06-26T08:12:28.292Z,13.50
2019-06-26T08:17:32.238Z,12.60
2019-06-26T08:22:36.201Z,13.00
2019-06-26T08:27:40.156Z,12.25
2019-06-26T08:32:44.102Z,13.20
2019-06-26T08:37:48.098Z,13.00
2019-06-26T08:42:52.106Z,12.75
2019-06-26T08:47:56.111Z,11.80
2019-06-26T08:53:00.058Z,12.20
2019-06-26T08:58:04.135Z,10.80
2019-06-26T09:03:08.154Z,12.00
2019-06-26T09:08:12.209Z,11.00
2019-06-26T09:13:16.421Z,12.25
2019-06-26T09:18:34.294Z,10.80
2019-06-26T09:23:26.041Z,11.20
2019-06-26T09:28:29.985Z,11.00
2019-06-26T09:33:33.939Z,10.00
2019-06-26T09:38:37.884Z,8.75
2019-06-26T09:43:41.949Z,10.50
2019-06-26T09:48:52.946Z,9.00
2019-06-26T09:53:51.543Z,11.80
2019-06-26T09:58:55.512Z,10.50
2019-06-26T10:03:59.538Z,11.00
2019-06-26T10:09:03.797Z,10.25
2019-06-26T10:14:07.762Z,10.00
2019-06-26T10:19:11.732Z,10.00
2019-06-26T10:24:15.689Z,10.00
2019-06-26T10:29:19.729Z,11.00
2019-06-26T10:34:23.675Z,10.80
2019-06-26T10:39:27.628Z,9.20
2019-06-26T10:44:31.766Z,9.40
2019-06-26T10:49:35.711Z,8.75
2019-06-26T10:54:39.675Z,8.60
2019-06-26T10:59:43.660Z,9.80
2019-06-26T11:04:47.707Z,9.25
2019-06-26T11:09:51.678Z,8.50
2019-06-26T11:14:55.824Z,8.60
2019-06-26T11:19:59.795Z,8.60
2019-06-26T11:25:03.913Z,9.20
2019-06-26T11:30:09.263Z,8.00
2019-06-26T11:35:13.576Z,8.40
2019-06-26T11:40:18.381Z,7.50
2019-06-26T11:45:23.313Z,8.40
2019-06-26T11:50:27.402Z,8.20
2019-06-26T11:55:31.421Z,6.50
2019-06-26T12:00:35.364Z,7.00
2019-06-26T12:05:39.339Z,7.00
2019-06-26T12:10:43.271Z,7.00
2019-06-26T12:15:47.306Z,7.20
2019-06-26T12:20:51.258Z,9.00
2019-06-26T12:25:55.251Z,7.20
2019-06-26T12:30:59.410Z,7.40
2019-06-26T12:36:03.322Z,8.00
2019-06-26T12:41:07.314Z,6.50
2019-06-26T12:46:11.336Z,6.75
2019-06-26T12:51:15.275Z,5.50
2019-06-26T12:56:19.268Z,7.25
2019-06-26T13:01:25.207Z,6.75
2019-06-26T13:06:29.110Z,7.00
2019-06-26T13:11:33.447Z,7.00
2019-06-26T13:16:38.112Z,6.25
2019-06-26T13:21:42.098Z,6.00
2019-06-26T13:26:46.109Z,6.00
2019-06-26T13:31:50.104Z,6.00
2019-06-26T13:36:54.033Z,6.50
2019-06-26T13:41:57.965Z,6.75
2019-06-26T13:47:01.939Z,5.75
2019-06-26T13:52:05.966Z,5.00
2019-06-26T13:57:09.924Z,6.00
2019-06-26T14:02:14.973Z,5.50
2019-06-26T14:07:19.375Z,6.25
2019-06-26T14:12:23.658Z,6.40
2019-06-26T14:17:27.676Z,5.00
2019-06-26T14:22:31.726Z,6.25
2019-06-26T14:27:35.734Z,5.60
2019-06-26T14:32:39.665Z,5.75
2019-06-26T14:37:43.614Z,5.00
2019-06-26T14:42:47.557Z,5.00
2019-06-26T14:47:51.487Z,4.50
2019-06-26T14:52:55.461Z,5.00
2019-06-26T14:57:59.421Z,5.00
2019-06-26T15:03:04.323Z,5.40
2019-06-26T15:08:08.330Z,5.25
2019-06-26T15:13:12.264Z,5.00
2019-06-26T15:18:16.212Z,4.40
2019-06-26T15:23:20.397Z,5.50
2019-06-26T15:28:24.498Z,4.25
2019-06-26T15:33:28.430Z,5.20
2019-06-26T15:38:32.505Z,4.50
2019-06-26T15:43:36.980Z,5.00
2019-06-26T15:48:40.927Z,4.40
2019-06-26T15:53:44.919Z,5.00
2019-06-26T15:58:48.951Z,5.00
2019-06-26T16:03:52.965Z,5.00
2019-06-26T16:08:56.891Z,4.75
2019-06-26T16:14:00.832Z,4.25
2019-06-26T16:19:10.471Z,4.00
2019-06-26T16:24:14.483Z,5.00
2019-06-26T16:29:18.440Z,4.40
2019-06-26T16:34:22.367Z,4.00
2019-06-26T16:39:26.339Z,4.00
2019-06-26T16:44:30.324Z,4.40
2019-06-26T16:49:34.267Z,4.00
2019-06-26T16:54:38.207Z,3.50
2019-06-26T16:59:42.261Z,4.00
2019-06-26T17:04:46.282Z,4.75
2019-06-26T17:09:50.561Z,4.00
2019-06-26T17:14:54.556Z,4.80
2019-06-26T17:19:58.569Z,4.50
2019-06-26T17:25:02.932Z,4.00
2019-06-26T17:30:07.964Z,4.00
2019-06-26T17:35:13.260Z,3.25
2019-06-26T17:40:17.297Z,4.00
2019-06-26T17:45:21.799Z,4.00
2019-06-26T17:50:25.751Z,4.00
2019-06-26T17:55:29.706Z,3.60
2019-06-26T18:00:35.861Z,4.25
2019-06-26T18:05:39.806Z,3.75
2019-06-26T18:10:43.774Z,4.00
2019-06-26T18:15:47.756Z,3.00
2019-06-26T18:20:51.733Z,4.80
2019-06-26T18:26:11.881Z,3.50
2019-06-26T18:31:01.628Z,3.40
2019-06-26T18:36:06.165Z,3.25
2019-06-26T18:41:10.094Z,3.00
2019-06-26T18:46:14.121Z,3.25
2019-06-26T18:51:19.543Z,4.20
2019-06-26T18:56:23.562Z,3.00
2019-06-26T19:01:27.598Z,3.80
2019-06-26T19:06:31.637Z,3.00
2019-06-26T19:11:35.784Z,3.00
2019-06-26T19:16:39.742Z,3.00
2019-06-26T19:21:43.691Z,4.00
2019-06-26T19:26:47.634Z,3.25
2019-06-26T19:31:51.572Z,3.00
2019-06-26T19:36:55.611Z,3.00
2019-06-26T19:41:59.662Z,3.00
2019-06-26T19:47:03.625Z,3.00
2019-06-26T19:52:07.576Z,2.40
2019-06-26T19:57:11.512Z,4.80
2019-06-26T20:02:15.610Z,9.25
2019-06-26T20:07:19.640Z,13.00
2019-06-26T20:12:23.815Z,15.00
2019-06-26T20:17:27.858Z,16.20
2019-06-26T20:22:31.805Z,18.25
2019-06-26T20:27:35.849Z,16.60
2019-06-26T20:32:39.815Z,19.80
2019-06-26T20:37:43.797Z,16.40
2019-06-26T20:42:47.728Z,18.00
2019-06-26T20:47:51.690Z,16.00
2019-06-26T20:52:55.852Z,18.60
2019-06-26T20:57:59.815Z,14.75
2019-06-26T21:03:03.891Z,15.25
2019-06-26T21:08:08.126Z,14.80
2019-06-26T21:13:12.124Z,15.40
2019-06-26T21:18:16.106Z,15.50
2019-06-26T21:23:23.319Z,14.20
2019-06-26T21:28:25.793Z,14.40
2019-06-26T21:33:29.776Z,13.20
2019-06-26T21:38:33.999Z,14.20
2019-06-26T21:43:38.055Z,14.25
2019-06-26T21:48:42.001Z,13.00
2019-06-26T21:53:46.041Z,12.40
2019-06-26T21:58:50.104Z,13.75
2019-06-26T22:03:54.143Z,12.20
2019-06-26T22:08:58.119Z,13.40
2019-06-26T22:14:02.105Z,12.50
2019-06-26T22:19:06.128Z,12.00
2019-06-26T22:24:10.085Z,11.50
2019-06-26T22:29:14.164Z,11.40
2019-06-26T22:34:18.137Z,11.50
2019-06-26T22:39:22.091Z,11.75
2019-06-26T22:44:26.170Z,11.20
2019-06-26T22:49:30.145Z,11.20
2019-06-26T22:54:34.114Z,11.40
2019-06-26T22:59:38.180Z,12.00
2019-06-26T23:04:42.143Z,11.80
2019-06-26T23:09:46.118Z,11.00
2019-06-26T23:14:50.196Z,10.75
2019-06-26T23:19:54.310Z,10.75
2019-06-26T23:24:58.282Z,12.25
2019-06-26T23:30:02.363Z,11.00
2019-06-26T23:35:06.892Z,10.80
2019-06-26T23:40:11.885Z,9.20
2019-06-26T23:45:16.026Z,8.75
2019-06-26T23:50:19.993Z,10.80
2019-06-26T23:55:23.956Z,10.60
